Time;durP1;ratioP1;P1;durP2;ratioP2;P2;SDS_P1;SDS_P2;PMS_P1;PMS_P2;Temp;Humidity;BMP_temperature;BMP_pressure;BME280_temperature;BME280_humidity;BME280_pressure;Samples;Min_cycle;Max_cycle;Signal;HPM_P1;HPM_P2
2023/01/17 00:00:39;;;;;;;2.73;2.27;;;5.00;99.90;;;;;;5046414;28;20524;-67
2023/01/17 00:03:09;;;;;;;3.30;1.80;;;4.90;99.90;;;;;;5040737;28;20474;-68
2023/01/17 00:11:18;;;;;;;1.70;1.60;;;5.00;99.90;;;;;;5048910;28;21035;-68
2023/01/17 00:13:52;;;;;;;2.83;1.93;;;5.00;99.90;;;;;;5051019;28;20493;-68
2023/01/17 00:16:25;;;;;;;2.10;1.90;;;5.00;99.90;;;;;;5045311;28;20494;-68
2023/01/17 01:35:50;;;;;;;2.20;2.10;;;4.70;99.90;;;;;;5046889;28;20491;-67
2023/01/17 01:38:19;;;;;;;2.53;2.20;;;4.60;99.90;;;;;;5049161;28;20474;-67
2023/01/17 01:40:49;;;;;;;2.40;2.20;;;4.60;99.90;;;;;;5039451;28;20488;-68
2023/01/17 01:43:20;;;;;;;2.30;2.10;;;4.60;99.90;;;;;;5041812;28;20466;-67
2023/01/17 01:45:57;;;;;;;3.33;3.03;;;4.60;99.90;;;;;;5043765;28;20486;-67
2023/01/17 01:48:35;;;;;;;2.30;2.10;;;4.60;99.90;;;;;;5046537;28;21182;-67
2023/01/17 01:51:08;;;;;;;2.50;2.30;;;4.60;99.90;;;;;;5045736;28;20469;-68
2023/01/17 01:53:41;;;;;;;3.27;2.53;;;4.70;99.90;;;;;;5043361;28;20593;-68
2023/01/17 01:56:12;;;;;;;2.60;2.40;;;4.70;99.90;;;;;;5045358;28;20572;-68
2023/01/17 01:58:45;;;;;;;2.87;2.30;;;4.70;99.90;;;;;;5046354;28;20458;-67
2023/01/17 02:01:19;;;;;;;3.03;2.50;;;4.60;99.90;;;;;;5042145;28;20467;-68
2023/01/17 02:03:51;;;;;;;2.80;2.60;;;4.60;99.90;;;;;;5041885;28;20470;-68
2023/01/17 02:06:28;;;;;;;3.00;2.43;;;4.70;99.90;;;;;;5044295;28;20490;-67
2023/01/17 02:08:58;;;;;;;3.40;2.50;;;4.60;99.90;;;;;;5039973;28;20490;-68
2023/01/17 02:11:27;;;;;;;2.67;2.47;;;4.60;99.90;;;;;;5046356;28;20463;-68
2023/01/17 02:13:58;;;;;;;2.73;2.53;;;4.60;99.90;;;;;;5060804;28;20515;-68
2023/01/17 02:16:41;;;;;;;2.80;2.60;;;4.60;99.90;;;;;;5065903;28;20478;-67
2023/01/17 02:19:36;;;;;;;2.70;2.50;;;4.60;99.90;;;;;;5066590;28;20462;-68
2023/01/17 02:22:22;;;;;;;2.87;2.67;;;4.60;99.90;;;;;;5066290;28;20466;-67
2023/01/17 02:25:08;;;;;;;3.50;3.27;;;4.70;99.90;;;;;;5056868;28;23456;-67
2023/01/17 02:28:08;;;;;;;3.60;3.30;;;4.70;99.90;;;;;;5044036;28;20920;-68
2023/01/17 02:30:42;;;;;;;3.80;3.50;;;4.70;99.90;;;;;;5042832;28;20548;-68
2023/01/17 02:33:22;;;;;;;4.50;4.10;;;4.70;99.90;;;;;;5042365;28;20841;-68
2023/01/17 02:35:58;;;;;;;3.70;3.40;;;4.70;99.90;;;;;;5041670;28;20597;-68
2023/01/17 02:38:36;;;;;;;4.87;4.47;;;4.70;99.90;;;;;;5043380;28;20518;-68
2023/01/17 02:41:10;;;;;;;4.90;3.90;;;4.70;99.90;;;;;;5048959;28;20539;-67
2023/01/17 02:43:41;;;;;;;5.33;4.60;;;4.70;99.90;;;;;;5044286;28;20466;-68
2023/01/17 02:46:17;;;;;;;5.60;5.10;;;4.70;99.90;;;;;;5042375;28;20486;-68
2023/01/17 02:48:55;;;;;;;5.90;5.40;;;4.70;99.90;;;;;;5044189;28;20533;-68
2023/01/17 02:51:54;;;;;;;5.23;4.80;;;4.70;99.90;;;;;;5044221;28;21029;-70
2023/01/17 02:54:51;;;;;;;6.00;5.50;;;4.70;99.90;;;;;;5040334;28;20489;-68
2023/01/17 02:57:39;;;;;;;5.90;5.40;;;4.70;99.90;;;;;;5045603;28;20879;-67
2023/01/17 03:00:16;;;;;;;6.47;5.80;;;4.80;99.90;;;;;;5041855;28;20728;-67
2023/01/17 03:02:57;;;;;;;6.77;6.20;;;4.80;99.90;;;;;;5047753;28;20470;-68
2023/01/17 03:05:32;;;;;;;6.40;5.80;;;4.70;99.90;;;;;;5041866;28;20505;-68
2023/01/17 03:08:03;;;;;;;6.70;6.10;;;4.70;99.90;;;;;;5042165;28;20505;-68
2023/01/17 03:10:33;;;;;;;7.30;6.60;;;4.80;99.90;;;;;;5045364;28;20485;-67
2023/01/17 03:13:03;;;;;;;7.17;6.50;;;4.80;99.90;;;;;;5043037;28;20540;-68
2023/01/17 03:15:33;;;;;;;7.40;6.73;;;4.80;99.90;;;;;;5043195;28;20536;-68
2023/01/17 03:18:06;;;;;;;8.83;7.80;;;4.80;99.90;;;;;;5043829;28;20496;-67
2023/01/17 03:20:40;;;;;;;7.67;6.97;;;4.80;99.90;;;;;;5045616;28;20824;-68
2023/01/17 03:23:11;;;;;;;7.63;6.83;;;4.80;99.90;;;;;;5043156;28;20841;-68
2023/01/17 03:25:44;;;;;;;8.20;7.43;;;4.80;99.90;;;;;;5042070;28;20966;-67
2023/01/17 03:28:12;;;;;;;8.10;7.40;;;4.80;99.90;;;;;;5039880;28;20486;-67
2023/01/17 03:30:43;;;;;;;7.80;7.00;;;4.80;99.90;;;;;;5045140;28;20466;-68
2023/01/17 03:33:25;;;;;;;8.23;7.10;;;4.80;99.90;;;;;;5042539;28;20475;-68
2023/01/17 03:35:56;;;;;;;9.20;7.87;;;4.80;99.90;;;;;;5042095;28;20543;-68
2023/01/17 03:38:29;;;;;;;11.07;8.27;;;4.80;99.90;;;;;;5041171;28;20467;-69
2023/01/17 03:40:59;;;;;;;9.13;8.23;;;4.80;99.90;;;;;;5044159;28;20581;-68
2023/01/17 03:43:31;;;;;;;9.97;8.67;;;4.80;99.90;;;;;;5048114;28;20850;-67
2023/01/17 03:46:05;;;;;;;9.30;8.30;;;4.80;99.90;;;;;;5046218;28;20493;-68
2023/01/17 03:48:34;;;;;;;9.07;8.17;;;4.80;99.90;;;;;;5048681;28;20936;-67
2023/01/17 03:51:02;;;;;;;9.53;8.47;;;4.90;99.90;;;;;;5047533;28;20496;-67
2023/01/17 03:53:37;;;;;;;9.30;8.40;;;4.80;99.90;;;;;;5045316;28;20500;-68
2023/01/17 03:56:09;;;;;;;8.50;7.67;;;4.80;99.90;;;;;;5050502;28;20486;-68
2023/01/17 03:58:42;;;;;;;7.70;6.90;;;4.80;99.90;;;;;;5045101;28;21048;-68
2023/01/17 04:01:10;;;;;;;7.73;6.93;;;4.80;99.90;;;;;;5046102;28;20984;-68
2023/01/17 04:03:42;;;;;;;6.93;6.23;;;4.80;99.90;;;;;;5049551;28;20532;-67
2023/01/17 04:06:15;;;;;;;8.30;6.77;;;4.80;99.90;;;;;;5043325;28;20881;-68
2023/01/17 04:08:44;;;;;;;7.30;6.60;;;4.80;99.90;;;;;;5048443;28;20490;-68
2023/01/17 04:11:19;;;;;;;7.47;6.70;;;4.70;99.90;;;;;;5045535;28;20918;-68
2023/01/17 04:13:50;;;;;;;7.80;7.00;;;4.70;99.90;;;;;;5045560;28;20969;-67
2023/01/17 04:16:18;;;;;;;7.10;6.40;;;4.70;99.90;;;;;;5045789;28;20490;-67
2023/01/17 04:18:50;;;;;;;6.37;5.67;;;4.80;99.90;;;;;;5050386;28;20470;-67
2023/01/17 04:21:21;;;;;;;4.80;4.33;;;4.80;99.90;;;;;;5051581;28;20470;-67
2023/01/17 04:23:49;;;;;;;4.00;3.60;;;4.80;99.90;;;;;;5050510;28;20577;-68
2023/01/17 04:26:18;;;;;;;5.33;4.10;;;4.80;99.90;;;;;;5046091;28;20490;-67
2023/01/17 04:28:48;;;;;;;3.80;3.50;;;4.70;99.90;;;;;;5050488;28;20490;-67
2023/01/17 04:31:17;;;;;;;3.00;2.80;;;4.70;99.90;;;;;;5051239;28;20969;-68
2023/01/17 04:33:55;;;;;;;2.70;2.50;;;4.70;99.90;;;;;;5051389;28;20877;-67
2023/01/17 04:36:31;;;;;;;2.87;2.63;;;4.70;99.90;;;;;;5049632;28;20493;-67
2023/01/17 04:38:59;;;;;;;3.93;3.00;;;4.70;99.90;;;;;;5052240;28;20466;-67
2023/01/17 04:41:28;;;;;;;2.93;2.73;;;4.60;99.90;;;;;;5051632;28;20903;-67
2023/01/17 04:43:56;;;;;;;4.27;3.50;;;4.60;99.90;;;;;;5050794;28;21001;-67
2023/01/17 04:46:37;;;;;;;3.33;3.03;;;4.50;99.90;;;;;;5049967;28;20501;-67
2023/01/17 04:49:07;;;;;;;2.60;2.40;;;4.40;99.90;;;;;;5051351;28;20482;-67
2023/01/17 04:51:43;;;;;;;3.43;2.60;;;4.40;99.90;;;;;;5049317;28;20484;-67
2023/01/17 04:54:11;;;;;;;2.97;2.67;;;4.30;99.90;;;;;;5039429;28;20466;-67
2023/01/17 04:56:42;;;;;;;3.10;2.80;;;4.30;99.90;;;;;;5043069;28;20490;-67
2023/01/17 04:59:16;;;;;;;2.93;2.63;;;4.30;99.90;;;;;;5046792;28;20536;-67
2023/01/17 05:01:49;;;;;;;3.30;3.00;;;4.30;99.90;;;;;;5043295;28;20471;-67
2023/01/17 05:04:19;;;;;;;3.50;2.90;;;4.30;99.90;;;;;;5045572;28;20567;-67
2023/01/17 05:06:51;;;;;;;2.90;2.70;;;4.30;99.90;;;;;;5046239;28;20490;-67
2023/01/17 05:09:19;;;;;;;3.40;3.10;;;4.30;99.90;;;;;;5046424;28;21021;-67
2023/01/17 05:11:50;;;;;;;3.70;3.30;;;4.30;99.90;;;;;;5045539;28;20565;-67
2023/01/17 05:14:18;;;;;;;4.00;3.00;;;4.30;99.90;;;;;;5044770;28;20470;-67
2023/01/17 05:16:54;;;;;;;3.70;3.00;;;4.30;99.90;;;;;;5045290;28;20556;-67
2023/01/17 05:19:29;;;;;;;4.90;3.87;;;4.30;99.90;;;;;;5042921;28;20473;-67
2023/01/17 05:22:02;;;;;;;3.90;3.37;;;4.30;99.90;;;;;;5045405;28;20886;-67
2023/01/17 05:24:35;;;;;;;4.13;3.40;;;4.30;99.90;;;;;;5046823;28;20467;-68
2023/01/17 05:27:07;;;;;;;4.03;3.50;;;4.30;99.90;;;;;;5047048;28;20502;-67
2023/01/17 05:29:38;;;;;;;5.80;3.80;;;4.30;99.90;;;;;;5040560;28;20612;-67
2023/01/17 05:32:07;;;;;;;4.47;3.80;;;4.30;99.90;;;;;;5038694;28;20470;-67
2023/01/17 05:34:36;;;;;;;4.77;3.97;;;4.30;99.90;;;;;;5041993;28;20507;-67
2023/01/17 05:37:08;;;;;;;6.33;4.60;;;4.30;99.90;;;;;;5039092;28;20502;-67
2023/01/17 05:39:38;;;;;;;5.50;4.50;;;4.40;99.90;;;;;;5043349;28;20553;-67
2023/01/17 05:42:08;;;;;;;5.10;3.80;;;4.30;99.90;;;;;;5043090;28;20466;-66
2023/01/17 05:44:39;;;;;;;4.77;4.23;;;4.40;99.90;;;;;;5039642;28;20474;-67
2023/01/17 05:47:10;;;;;;;5.07;3.93;;;4.40;99.90;;;;;;5044412;28;20509;-67
2023/01/17 05:49:40;;;;;;;4.50;3.70;;;4.40;99.90;;;;;;5037731;28;20544;-66
2023/01/17 05:52:15;;;;;;;4.60;4.20;;;4.40;99.90;;;;;;5040025;28;20473;-67
2023/01/17 05:54:44;;;;;;;2.77;2.57;;;4.40;99.90;;;;;;5041998;28;20543;-67
2023/01/17 05:57:15;;;;;;;3.83;2.87;;;4.40;99.90;;;;;;5046243;28;20853;-67
2023/01/17 05:59:46;;;;;;;3.00;2.30;;;4.40;99.90;;;;;;5043492;28;20462;-67
2023/01/17 06:02:18;;;;;;;1.70;1.40;;;4.40;99.90;;;;;;5043241;28;20470;-68
2023/01/17 06:04:50;;;;;;;1.53;1.43;;;4.40;99.90;;;;;;5043394;28;20561;-67
2023/01/17 06:07:18;;;;;;;1.57;1.47;;;4.30;99.90;;;;;;5037579;28;20494;-67
2023/01/17 06:09:46;;;;;;;1.30;1.20;;;4.20;99.90;;;;;;5031304;28;20502;-67
2023/01/17 06:12:14;;;;;;;1.07;1.00;;;4.20;99.90;;;;;;5037202;28;20994;-67
2023/01/17 06:14:47;;;;;;;0.80;0.80;;;4.10;99.90;;;;;;5030496;28;20494;-67
2023/01/17 06:17:17;;;;;;;0.80;0.70;;;4.10;99.90;;;;;;5033740;28;20498;-67
2023/01/17 06:19:52;;;;;;;1.30;0.70;;;4.10;99.90;;;;;;5037859;28;20470;-67
2023/01/17 06:22:20;;;;;;;1.10;0.80;;;4.10;99.90;;;;;;5042317;28;21051;-67
2023/01/17 06:24:54;;;;;;;2.50;0.90;;;4.00;99.90;;;;;;5036694;28;20623;-67
2023/01/17 06:27:22;;;;;;;0.80;0.70;;;4.00;99.90;;;;;;5046399;28;20499;-67
2023/01/17 06:29:52;;;;;;;1.00;0.60;;;3.90;99.90;;;;;;5039866;28;20486;-68
2023/01/17 06:32:22;;;;;;;1.10;0.60;;;3.90;99.90;;;;;;5039636;28;20471;-67
2023/01/17 06:34:54;;;;;;;1.53;0.87;;;3.90;99.90;;;;;;5042115;28;21081;-67
2023/01/17 06:37:23;;;;;;;0.80;0.80;;;3.90;99.90;;;;;;5039189;28;20491;-67
2023/01/17 06:39:55;;;;;;;0.50;0.50;;;3.80;99.90;;;;;;5042888;28;20477;-67
2023/01/17 06:42:25;;;;;;;0.60;0.60;;;3.80;99.90;;;;;;5046538;28;20502;-68
2023/01/17 06:44:54;;;;;;;1.50;0.83;;;3.80;99.90;;;;;;5038841;28;20484;-67
2023/01/17 06:47:22;;;;;;;5.87;2.00;;;3.80;99.90;;;;;;5049706;28;20877;-67
2023/01/17 06:49:59;;;;;;;2.23;0.77;;;3.70;99.90;;;;;;5044646;28;20544;-67
2023/01/17 06:52:31;;;;;;;2.97;1.17;;;3.60;99.90;;;;;;5043993;28;20946;-67
2023/01/17 06:55:06;;;;;;;2.57;1.27;;;3.60;99.90;;;;;;5043909;28;20486;-67
2023/01/17 06:57:40;;;;;;;2.97;1.20;;;3.60;99.90;;;;;;5046834;28;20509;-67
2023/01/17 07:00:11;;;;;;;2.70;1.53;;;3.60;99.90;;;;;;5031575;28;20539;-67
2023/01/17 07:02:46;;;;;;;1.27;0.73;;;3.60;99.90;;;;;;5043871;28;20852;-70
2023/01/17 07:05:20;;;;;;;4.97;1.70;;;3.60;99.90;;;;;;5048333;28;20825;-67
2023/01/17 07:07:55;;;;;;;3.17;1.57;;;3.60;99.90;;;;;;5046317;28;20489;-67
2023/01/17 07:10:26;;;;;;;1.83;0.87;;;3.60;99.90;;;;;;5042726;28;20490;-67
2023/01/17 07:12:59;;;;;;;2.47;1.40;;;3.60;99.90;;;;;;5045444;28;20469;-67
2023/01/17 07:15:33;;;;;;;5.73;1.73;;;3.60;99.90;;;;;;5045231;28;20482;-67
2023/01/17 07:18:01;;;;;;;3.57;1.50;;;3.60;99.90;;;;;;5048321;28;20549;-68
2023/01/17 07:20:32;;;;;;;4.27;1.03;;;3.50;99.90;;;;;;5042519;28;20470;-66
2023/01/17 07:23:06;;;;;;;3.63;0.80;;;3.50;99.90;;;;;;5046379;28;21124;-67
2023/01/17 07:25:36;;;;;;;3.90;1.90;;;3.50;99.90;;;;;;5040197;28;20486;-67
2023/01/17 07:28:05;;;;;;;2.37;1.07;;;3.50;99.90;;;;;;5046170;28;20475;-67
2023/01/17 07:30:43;;;;;;;3.00;1.50;;;3.60;99.90;;;;;;5036400;28;20487;-67
2023/01/17 07:33:11;;;;;;;2.30;0.90;;;3.60;99.90;;;;;;5046924;28;20996;-67
2023/01/17 07:35:40;;;;;;;2.70;0.97;;;3.60;99.90;;;;;;5047151;28;20497;-68
2023/01/17 07:38:21;;;;;;;2.30;1.03;;;3.60;99.90;;;;;;5045430;28;20494;-67
2023/01/17 07:40:58;;;;;;;2.97;1.20;;;3.60;99.90;;;;;;5045493;28;20466;-67
2023/01/17 07:43:26;;;;;;;4.13;1.37;;;3.60;99.90;;;;;;5047618;28;20470;-68
2023/01/17 07:45:57;;;;;;;6.43;1.50;;;3.60;99.90;;;;;;5044968;28;20494;-67
2023/01/17 07:48:31;;;;;;;2.23;1.10;;;3.60;99.90;;;;;;5046609;28;20557;-67
2023/01/17 07:51:08;;;;;;;4.30;1.57;;;3.60;99.90;;;;;;5048434;28;21013;-68
2023/01/17 07:53:36;;;;;;;2.43;1.23;;;3.60;99.90;;;;;;5049500;28;20969;-68
2023/01/17 07:56:08;;;;;;;2.00;1.20;;;3.70;99.90;;;;;;5039633;28;20491;-67
2023/01/17 07:58:39;;;;;;;1.97;1.20;;;3.70;99.90;;;;;;5047515;28;20466;-68
2023/01/17 08:01:12;;;;;;;3.20;1.23;;;3.70;99.90;;;;;;5045710;28;20474;-67
2023/01/17 08:03:44;;;;;;;3.20;1.53;;;3.70;99.90;;;;;;5046739;28;20467;-67
2023/01/17 08:06:21;;;;;;;4.27;1.30;;;3.70;99.90;;;;;;5048043;28;20486;-67
2023/01/17 08:08:57;;;;;;;6.13;1.60;;;3.70;99.90;;;;;;5041687;28;20481;-67
2023/01/17 08:11:27;;;;;;;5.70;1.80;;;3.80;99.90;;;;;;5044993;28;20494;-68
2023/01/17 08:14:01;;;;;;;4.03;1.40;;;3.70;99.90;;;;;;5044082;28;20473;-68
2023/01/17 08:16:31;;;;;;;3.00;1.30;;;3.70;99.90;;;;;;5046535;28;20490;-67
2023/01/17 08:19:03;;;;;;;0.93;0.90;;;3.60;99.90;;;;;;5048247;28;20477;-68
2023/01/17 08:21:35;;;;;;;1.83;1.00;;;3.60;99.90;;;;;;5043814;28;20485;-67
2023/01/17 08:24:06;;;;;;;3.63;1.33;;;3.50;99.90;;;;;;5046636;28;20474;-68
2023/01/17 08:26:34;;;;;;;1.70;1.03;;;3.50;99.90;;;;;;5048804;28;20875;-68
2023/01/17 08:29:07;;;;;;;3.20;1.00;;;3.50;99.90;;;;;;5038713;28;20466;-68
2023/01/17 08:31:40;;;;;;;3.50;1.13;;;3.50;99.90;;;;;;5050338;28;20854;-67
2023/01/17 08:34:13;;;;;;;3.93;2.07;;;3.50;99.90;;;;;;5046744;28;20470;-67
2023/01/17 08:36:43;;;;;;;1.60;0.80;;;3.50;99.90;;;;;;5038197;28;21008;-68
2023/01/17 08:39:12;;;;;;;2.90;1.30;;;3.50;99.90;;;;;;5045754;28;20490;-68
2023/01/17 08:41:41;;;;;;;4.50;1.00;;;3.50;99.90;;;;;;5052234;28;20462;-68
2023/01/17 08:44:11;;;;;;;3.70;3.40;;;3.50;99.90;;;;;;5049826;28;20475;-68
2023/01/17 08:46:43;;;;;;;3.47;1.63;;;3.50;99.90;;;;;;5050393;28;20522;-68
2023/01/17 08:49:11;;;;;;;1.90;1.13;;;3.60;99.90;;;;;;5050664;28;20475;-67
2023/01/17 08:51:41;;;;;;;2.53;1.10;;;3.60;99.90;;;;;;5051651;28;20494;-68
2023/01/17 08:54:13;;;;;;;1.80;1.27;;;3.60;99.90;;;;;;5050917;28;20482;-67
2023/01/17 08:56:42;;;;;;;3.90;1.30;;;3.60;99.90;;;;;;5049749;28;20474;-68
2023/01/17 08:59:17;;;;;;;3.13;1.30;;;3.60;99.90;;;;;;5052125;28;20481;-68
2023/01/17 09:01:56;;;;;;;1.80;1.23;;;3.60;99.90;;;;;;5052109;28;20466;-70
2023/01/17 09:04:26;;;;;;;3.40;1.60;;;3.70;99.90;;;;;;5049261;28;20557;-67
2023/01/17 09:06:54;;;;;;;4.50;1.17;;;3.70;99.90;;;;;;5051095;28;20544;-68
2023/01/17 09:09:27;;;;;;;4.00;1.83;;;3.70;99.90;;;;;;5048748;28;20474;-67
2023/01/17 09:11:57;;;;;;;3.80;1.43;;;3.60;99.90;;;;;;5053567;28;20494;-68
2023/01/17 09:14:30;;;;;;;6.00;1.50;;;3.60;99.90;;;;;;5068702;28;20481;-68
2023/01/17 09:19:47;;;;;;;3.20;1.60;;;3.70;99.90;;;;;;5066856;28;20463;-67
2023/01/17 09:22:23;;;;;;;5.17;1.50;;;3.70;99.90;;;;;;5060700;28;20523;-68
2023/01/17 09:24:59;;;;;;;1.97;1.40;;;3.70;99.90;;;;;;5044303;28;20478;-67
2023/01/17 09:27:30;;;;;;;4.97;1.57;;;3.70;99.90;;;;;;5050457;28;20539;-67
2023/01/17 09:30:01;;;;;;;4.43;1.60;;;3.70;99.90;;;;;;5051221;28;20466;-67
2023/01/17 09:32:31;;;;;;;2.80;1.53;;;3.80;99.90;;;;;;5050188;28;20565;-68
2023/01/17 09:35:04;;;;;;;5.27;1.53;;;3.80;99.90;;;;;;5050808;28;20493;-68
2023/01/17 09:37:33;;;;;;;5.33;2.03;;;3.80;99.90;;;;;;5050443;28;20490;-68
2023/01/17 09:40:07;;;;;;;3.27;1.53;;;3.90;99.90;;;;;;5048943;28;20488;-68
2023/01/17 09:42:43;;;;;;;2.40;1.30;;;3.90;99.90;;;;;;5049559;28;20469;-68
2023/01/17 09:45:16;;;;;;;4.43;1.37;;;3.80;99.90;;;;;;5049575;28;20589;-68
2023/01/17 09:47:54;;;;;;;2.97;1.50;;;3.80;99.90;;;;;;5048154;28;20551;-68
2023/01/17 09:50:31;;;;;;;3.67;1.50;;;3.70;99.90;;;;;;5049024;28;20466;-68
2023/01/17 09:53:02;;;;;;;2.40;1.20;;;3.70;99.90;;;;;;5051051;28;20619;-68
2023/01/17 09:55:44;;;;;;;2.57;1.33;;;3.70;99.90;;;;;;5048594;28;21000;-68
2023/01/17 09:58:24;;;;;;;2.23;1.30;;;3.60;99.90;;;;;;5050311;28;20478;-68
2023/01/17 10:01:02;;;;;;;1.97;1.10;;;3.60;99.90;;;;;;5050408;28;20978;-68
2023/01/17 10:03:47;;;;;;;1.97;1.10;;;3.60;99.90;;;;;;5048793;28;20473;-67
2023/01/17 10:06:43;;;;;;;3.77;1.67;;;3.60;99.90;;;;;;5048968;28;20493;-68
2023/01/17 10:09:38;;;;;;;3.20;1.30;;;3.60;99.90;;;;;;5050378;28;20477;-68
2023/01/17 10:12:19;;;;;;;4.10;1.40;;;3.60;99.90;;;;;;5046826;28;20501;-68
2023/01/17 10:15:11;;;;;;;3.03;1.30;;;3.70;99.90;;;;;;5047145;28;20486;-68
2023/01/17 10:17:56;;;;;;;4.43;1.30;;;3.70;99.90;;;;;;5046977;28;20490;-67
2023/01/17 10:20:46;;;;;;;2.70;1.57;;;3.80;99.90;;;;;;5049352;28;20470;-67
2023/01/17 10:23:36;;;;;;;2.57;1.43;;;3.80;99.90;;;;;;5049844;28;20466;-67
2023/01/17 10:26:11;;;;;;;3.80;1.30;;;3.80;99.90;;;;;;5049250;28;20490;-68
2023/01/17 10:28:56;;;;;;;4.27;1.47;;;3.90;99.90;;;;;;5049756;28;20466;-67
2023/01/17 10:31:45;;;;;;;2.10;1.20;;;3.90;99.90;;;;;;5049219;28;20513;-68
2023/01/17 10:34:18;;;;;;;3.27;1.20;;;3.90;99.90;;;;;;5049623;28;20454;-67
2023/01/17 10:36:55;;;;;;;2.70;1.10;;;4.00;99.90;;;;;;5048872;28;20812;-67
2023/01/17 10:39:25;;;;;;;2.60;1.00;;;4.00;99.90;;;;;;5047655;28;20588;-67
2023/01/17 10:41:56;;;;;;;1.77;1.07;;;4.00;99.90;;;;;;5050732;28;20466;-68
2023/01/17 10:44:36;;;;;;;2.20;0.90;;;4.00;99.90;;;;;;5051519;28;20827;-68
2023/01/17 10:47:12;;;;;;;2.50;1.47;;;4.00;99.90;;;;;;5049091;28;20527;-68
2023/01/17 10:49:44;;;;;;;3.57;1.00;;;4.00;99.90;;;;;;5051039;28;20507;-68
2023/01/17 10:52:19;;;;;;;1.83;1.00;;;4.00;99.90;;;;;;5051511;28;20504;-67
2023/01/17 10:55:08;;;;;;;3.80;1.40;;;4.10;99.90;;;;;;5049001;28;20476;-67
2023/01/17 10:57:50;;;;;;;2.87;1.10;;;4.20;99.90;;;;;;5047764;28;20929;-68
2023/01/17 11:00:42;;;;;;;1.67;0.70;;;4.20;99.90;;;;;;5049817;28;20960;-68
2023/01/17 11:03:11;;;;;;;1.57;1.07;;;4.30;99.90;;;;;;5049388;28;20553;-68
2023/01/17 11:05:41;;;;;;;1.57;1.30;;;4.30;99.90;;;;;;5047338;28;20470;-68
2023/01/17 11:08:13;;;;;;;1.50;0.90;;;4.30;99.90;;;;;;5047595;28;20475;-67
2023/01/17 11:10:53;;;;;;;2.77;1.00;;;4.30;99.90;;;;;;5048490;28;20989;-67
2023/01/17 11:13:29;;;;;;;4.47;1.07;;;4.50;99.90;;;;;;5049404;28;20528;-67
2023/01/17 11:16:11;;;;;;;2.17;1.00;;;4.60;99.90;;;;;;5042855;28;20881;-67
2023/01/17 11:18:43;;;;;;;2.20;1.03;;;4.60;99.90;;;;;;5044702;28;20476;-68
2023/01/17 11:21:18;;;;;;;2.57;1.07;;;4.70;99.90;;;;;;5045726;28;20474;-68
2023/01/17 11:23:49;;;;;;;3.57;0.93;;;4.80;99.90;;;;;;5048641;28;20454;-67
2023/01/17 11:26:24;;;;;;;6.20;1.30;;;4.90;99.90;;;;;;5047991;28;20490;-68
2023/01/17 11:29:12;;;;;;;5.20;1.23;;;5.00;99.90;;;;;;5047390;28;20981;-67
2023/01/17 11:31:51;;;;;;;1.70;0.93;;;5.00;99.90;;;;;;5047896;28;20470;-67
2023/01/17 11:34:25;;;;;;;4.93;1.37;;;5.00;99.90;;;;;;5048675;28;20958;-67
2023/01/17 11:37:18;;;;;;;1.80;1.00;;;5.10;99.90;;;;;;5046839;28;21036;-67
2023/01/17 11:39:47;;;;;;;3.10;1.10;;;5.10;99.90;;;;;;5044367;28;20499;-67
2023/01/17 11:42:33;;;;;;;2.40;0.90;;;5.10;99.90;;;;;;5046997;28;20475;-67
2023/01/17 11:45:26;;;;;;;4.17;0.87;;;5.00;99.90;;;;;;5042565;28;20511;-67
2023/01/17 11:48:16;;;;;;;1.70;0.70;;;4.90;99.90;;;;;;5046005;28;20482;-67
2023/01/17 11:50:47;;;;;;;2.70;1.00;;;4.80;99.90;;;;;;5048971;28;20957;-67
2023/01/17 11:53:23;;;;;;;3.23;0.90;;;4.80;99.90;;;;;;5047434;28;20478;-67
2023/01/17 11:56:04;;;;;;;2.87;1.07;;;4.80;99.90;;;;;;5045736;28;20496;-67
2023/01/17 11:58:38;;;;;;;2.30;1.20;;;4.90;99.90;;;;;;5048736;28;20540;-67
2023/01/17 12:01:26;;;;;;;1.73;0.73;;;4.90;99.90;;;;;;5048374;28;20832;-67
2023/01/17 12:04:22;;;;;;;2.87;1.00;;;4.90;99.90;;;;;;5050071;28;20976;-67
2023/01/17 12:07:05;;;;;;;1.00;0.83;;;5.00;99.90;;;;;;5047985;28;20497;-67
2023/01/17 12:09:39;;;;;;;1.53;0.90;;;5.10;99.90;;;;;;5051896;28;20532;-67
2023/01/17 12:15:23;;;;;;;2.40;0.93;;;5.00;99.90;;;;;;5051385;28;20566;-67
2023/01/17 12:18:33;;;;;;;4.27;0.90;;;4.80;99.90;;;;;;5051842;28;20470;-67
2023/01/17 12:21:36;;;;;;;2.13;1.20;;;4.70;99.90;;;;;;4980843;28;20989;-67
2023/01/17 12:24:31;;;;;;;1.43;0.70;;;4.60;99.90;;;;;;4982016;28;20554;-67
2023/01/17 12:27:12;;;;;;;1.20;1.00;;;4.60;99.90;;;;;;5045275;28;20478;-67
2023/01/17 12:29:47;;;;;;;2.03;0.80;;;4.50;99.90;;;;;;5049277;28;20473;-67
2023/01/17 12:32:34;;;;;;;1.50;0.97;;;4.40;99.90;;;;;;5051968;28;20474;-66
2023/01/17 12:35:12;;;;;;;1.13;0.83;;;4.30;99.90;;;;;;5049947;28;20470;-67
2023/01/17 12:37:50;;;;;;;2.30;0.93;;;4.40;99.90;;;;;;5046564;28;20493;-67
2023/01/17 12:40:37;;;;;;;1.67;0.97;;;4.60;99.90;;;;;;5051338;28;20540;-67
2023/01/17 12:43:14;;;;;;;1.37;0.93;;;4.70;99.90;;;;;;5052649;28;20473;-67
2023/01/17 12:45:44;;;;;;;1.27;0.80;;;4.70;99.90;;;;;;5050553;28;20877;-67
2023/01/17 12:48:18;;;;;;;3.17;0.90;;;4.70;99.90;;;;;;5050311;28;20481;-67
2023/01/17 12:50:52;;;;;;;2.87;1.00;;;4.90;99.90;;;;;;5050727;28;20470;-67
2023/01/17 12:53:39;;;;;;;0.70;0.70;;;4.90;99.90;;;;;;5050897;28;20486;-67
2023/01/17 12:56:16;;;;;;;0.90;0.70;;;4.90;99.90;;;;;;5050537;28;20478;-67
2023/01/17 12:58:52;;;;;;;1.00;1.00;;;5.00;99.90;;;;;;5051870;28;20481;-67
2023/01/17 13:01:28;;;;;;;1.53;1.43;;;5.10;99.90;;;;;;5050479;28;20473;-67
2023/01/17 13:04:17;;;;;;;2.60;1.00;;;5.10;99.90;;;;;;5050905;28;20492;-67
2023/01/17 13:06:58;;;;;;;3.10;0.80;;;5.10;99.90;;;;;;5050271;28;20998;-67
2023/01/17 13:09:36;;;;;;;1.57;0.93;;;5.30;99.90;;;;;;5047751;28;20474;-67
2023/01/17 13:12:14;;;;;;;1.47;0.80;;;5.40;99.90;;;;;;5046688;28;20470;-67
2023/01/17 13:14:45;;;;;;;2.70;0.70;;;5.30;99.90;;;;;;5047735;28;21029;-67
2023/01/17 13:17:31;;;;;;;1.30;0.70;;;5.30;99.90;;;;;;5047462;28;20490;-67
2023/01/17 13:20:08;;;;;;;0.90;0.70;;;5.20;99.90;;;;;;5042023;28;20828;-67
2023/01/17 13:22:40;;;;;;;0.90;0.60;;;5.10;99.90;;;;;;5048652;28;21043;-67
2023/01/17 13:25:23;;;;;;;2.00;0.90;;;5.20;99.90;;;;;;5047422;28;20482;-67
2023/01/17 13:28:06;;;;;;;2.43;0.97;;;5.20;99.90;;;;;;5051688;28;20877;-67
2023/01/17 13:31:09;;;;;;;1.37;0.90;;;5.30;99.90;;;;;;5052859;28;20462;-67
2023/01/17 13:33:51;;;;;;;4.00;1.03;;;5.40;99.90;;;;;;5056880;28;20516;-67
2023/01/17 13:36:30;;;;;;;3.13;1.17;;;5.50;99.90;;;;;;5063511;28;20679;-67
2023/01/17 13:39:23;;;;;;;2.00;0.90;;;5.60;99.90;;;;;;5057835;28;20474;-67
2023/01/17 13:42:08;;;;;;;2.50;0.80;;;5.50;99.90;;;;;;5061179;28;20462;-66
2023/01/17 13:44:40;;;;;;;1.20;0.80;;;5.50;99.90;;;;;;5060718;28;20532;-68
2023/01/17 13:47:37;;;;;;;1.97;0.90;;;5.50;99.90;;;;;;5047379;28;20545;-68
2023/01/17 13:50:25;;;;;;;1.40;0.70;;;5.40;99.90;;;;;;5046994;28;20466;-70
2023/01/17 13:52:56;;;;;;;0.80;0.70;;;5.30;99.90;;;;;;5046318;28;20889;-68
2023/01/17 13:55:45;;;;;;;1.90;0.83;;;5.20;99.90;;;;;;5047294;28;20497;-69
2023/01/17 14:01:50;;;;;;;1.30;0.80;;;5.10;99.90;;;;;;5112585;27;20568;-66
2023/01/17 14:04:25;;;;;;;3.93;1.10;;;5.00;99.90;;;;;;5108309;28;20467;-67
2023/01/17 14:07:02;;;;;;;3.30;1.10;;;5.00;99.90;;;;;;5104382;28;20502;-66
2023/01/17 14:09:41;;;;;;;0.90;0.80;;;5.10;99.90;;;;;;5107863;28;20851;-66
2023/01/17 14:12:26;;;;;;;1.80;0.90;;;5.10;99.90;;;;;;5116019;28;20471;-66
2023/01/17 14:14:59;;;;;;;1.70;0.87;;;5.20;99.90;;;;;;5108912;27;20805;-66
2023/01/17 14:17:50;;;;;;;3.30;1.00;;;5.30;99.90;;;;;;5114426;28;21044;-66
2023/01/17 14:20:49;;;;;;;1.03;0.90;;;5.30;99.90;;;;;;5116461;28;20482;-66
2023/01/17 14:23:39;;;;;;;1.63;0.73;;;5.20;99.90;;;;;;5112401;28;20963;-66
2023/01/17 14:26:38;;;;;;;7.27;1.00;;;5.20;99.90;;;;;;5110272;28;21056;-66
2023/01/17 14:29:44;;;;;;;4.10;1.00;;;5.10;99.90;;;;;;5115392;28;21040;-66
2023/01/17 14:32:15;;;;;;;2.80;0.73;;;5.10;99.90;;;;;;5111189;28;20462;-69
2023/01/17 14:34:49;;;;;;;1.40;1.00;;;5.10;99.90;;;;;;5105629;27;20483;-66
2023/01/17 14:37:27;;;;;;;3.23;1.23;;;5.10;99.90;;;;;;5114129;28;20487;-66
2023/01/17 14:39:55;;;;;;;2.10;0.97;;;5.00;99.90;;;;;;5090557;27;20501;-66
2023/01/17 14:42:26;;;;;;;3.30;1.17;;;4.90;99.90;;;;;;5104683;27;20493;-66
2023/01/17 14:45:00;;;;;;;4.40;1.10;;;4.90;99.90;;;;;;5108323;28;20487;-66
2023/01/17 14:47:35;;;;;;;2.03;1.00;;;4.80;99.90;;;;;;5094256;28;20901;-66
2023/01/17 14:50:19;;;;;;;2.03;1.60;;;4.70;99.90;;;;;;5087878;28;20456;-66
2023/01/17 14:53:06;;;;;;;4.13;1.13;;;4.60;99.90;;;;;;5095616;28;20504;-66
2023/01/17 14:55:38;;;;;;;3.17;1.17;;;4.60;99.90;;;;;;5092505;27;20472;-68
2023/01/17 14:58:19;;;;;;;6.80;1.07;;;4.60;99.90;;;;;;5090508;28;20499;-66
2023/01/17 15:00:48;;;;;;;2.07;1.27;;;4.60;99.90;;;;;;5088418;28;20499;-67
2023/01/17 15:03:21;;;;;;;2.03;1.00;;;4.60;99.90;;;;;;5090602;28;20486;-67
2023/01/17 15:05:57;;;;;;;2.30;1.10;;;4.50;99.90;;;;;;5091658;28;20489;-67
2023/01/17 15:08:34;;;;;;;2.33;0.90;;;4.50;99.90;;;;;;5097455;28;20482;-67
2023/01/17 15:11:06;;;;;;;3.43;1.03;;;4.50;99.90;;;;;;5095697;28;22607;-68
2023/01/17 15:13:38;;;;;;;1.37;1.00;;;4.40;99.90;;;;;;5093845;28;20460;-68